createdAt,value
2019-05-21T00:02:34.358Z,13
2019-05-21T00:07:49.718Z,13
2019-05-21T00:13:04.631Z,13
2019-05-21T00:18:22.416Z,13
2019-05-21T00:23:37.657Z,13
2019-05-21T00:28:52.217Z,13
2019-05-21T00:34:07.880Z,13
2019-05-21T00:39:23.821Z,13
2019-05-21T00:44:38.258Z,13
2019-05-21T00:49:55.607Z,13
2019-05-21T00:55:10.778Z,13
2019-05-21T01:00:25.686Z,13
2019-05-21T01:05:40.741Z,13
2019-05-21T01:10:56.585Z,13
2019-05-21T01:16:12.727Z,12
2019-05-21T01:21:29.165Z,12
2019-05-21T01:26:46.385Z,12
2019-05-21T01:32:00.978Z,12
2019-05-21T01:37:15.927Z,13
2019-05-21T01:42:31.006Z,13
2019-05-21T01:47:47.566Z,13
2019-05-21T01:53:03.189Z,13
2019-05-21T01:58:17.686Z,13
2019-05-21T02:03:35.589Z,13
2019-05-21T02:08:51.986Z,13
2019-05-21T02:14:09.227Z,13
2019-05-21T02:19:24.286Z,13
2019-05-21T02:24:38.998Z,13
2019-05-21T02:29:54.942Z,13
2019-05-21T02:35:11.271Z,13
2019-05-21T02:40:26.754Z,13
2019-05-21T02:45:42.401Z,13
2019-05-21T02:51:01.300Z,13
2019-05-21T02:56:15.212Z,13
2019-05-21T03:01:32.095Z,13
2019-05-21T03:06:47.754Z,12
2019-05-21T03:12:05.748Z,12
2019-05-21T03:17:21.160Z,12
2019-05-21T03:22:38.393Z,12
2019-05-21T03:27:51.224Z,12
2019-05-21T03:33:07.692Z,12
2019-05-21T03:38:23.164Z,12
2019-05-21T03:43:38.779Z,12
2019-05-21T03:48:53.601Z,12
2019-05-21T03:54:08.815Z,12
2019-05-21T03:59:24.180Z,13
2019-05-21T04:04:38.908Z,13
2019-05-21T04:09:55.023Z,13
2019-05-21T04:15:11.933Z,13
2019-05-21T04:20:28.487Z,13
2019-05-21T04:25:45.750Z,13
2019-05-21T04:31:01.014Z,13
2019-05-21T04:36:16.562Z,13
2019-05-21T04:41:33.357Z,13
2019-05-21T04:46:48.495Z,13
2019-05-21T04:52:03.887Z,13
2019-05-21T04:57:19.875Z,14
2019-05-21T05:02:35.980Z,14
2019-05-21T05:07:52.791Z,16
2019-05-21T05:13:10.452Z,18
2019-05-21T05:18:28.131Z,20
2019-05-21T05:23:44.614Z,21
2019-05-21T05:29:02.261Z,22
2019-05-21T05:39:31.412Z,23
2019-05-21T05:44:47.890Z,23
2019-05-21T06:38:18.682Z,20
2019-05-21T06:43:32.704Z,20
2019-05-21T06:59:14.217Z,20
2019-05-21T06:59:51.321Z,20
2019-05-21T07:00:20.849Z,20
2019-05-21T07:05:35.003Z,20
2019-05-21T07:10:52.136Z,20
2019-05-21T07:16:08.927Z,20
2019-05-21T07:21:24.455Z,20
2019-05-21T07:26:40.495Z,20
2019-05-21T07:31:57.046Z,20
2019-05-21T07:37:16.092Z,21
2019-05-21T07:53:00.178Z,21
2019-05-21T07:58:18.343Z,21
2019-05-21T08:03:37.418Z,21
2019-05-21T08:14:07.211Z,21
2019-05-21T08:19:22.246Z,21
2019-05-21T08:24:39.469Z,22
2019-05-21T08:29:57.749Z,22
2019-05-21T08:35:14.110Z,22
2019-05-21T08:40:31.241Z,22
2019-05-21T08:45:48.891Z,22
2019-05-21T08:51:07.993Z,22
2019-05-21T08:56:22.232Z,23
2019-05-21T09:01:40.037Z,23
2019-05-21T09:12:12.672Z,23
2019-05-21T09:17:31.158Z,23
2019-05-21T09:22:50.034Z,23
2019-05-21T09:38:35.686Z,23
2019-05-21T09:43:52.611Z,23
2019-05-21T09:49:10.426Z,23
2019-05-21T09:54:28.842Z,23
2019-05-21T10:05:02.039Z,23
2019-05-21T10:10:21.324Z,23
2019-05-21T10:15:37.306Z,24
2019-05-21T10:26:05.668Z,23
2019-05-21T10:41:52.280Z,23
2019-05-21T10:47:08.320Z,23
2019-05-21T11:02:52.105Z,24
2019-05-21T11:08:25.754Z,24
2019-05-21T11:18:51.992Z,24
2019-05-21T11:24:08.690Z,24
2019-05-21T11:34:39.216Z,24
2019-05-21T11:45:08.493Z,24
2019-05-21T11:51:00.424Z,24
2019-05-21T11:56:17.734Z,24
2019-05-21T12:01:34.163Z,24
2019-05-21T12:06:49.975Z,24
2019-05-21T12:17:19.815Z,24
2019-05-21T12:33:06.511Z,25
2019-05-21T12:38:24.111Z,25
2019-05-21T12:43:42.605Z,25
2019-05-21T12:49:00.892Z,27
2019-05-21T12:54:20.925Z,27
2019-05-21T12:59:39.792Z,28
2019-05-21T13:04:55.376Z,29
2019-05-21T13:10:12.699Z,29
2019-05-21T13:15:28.874Z,30
2019-05-21T13:36:28.305Z,30
2019-05-21T15:36:52.089Z,29
2019-05-21T15:42:07.986Z,29
2019-05-21T16:23:57.811Z,28
2019-05-21T17:52:50.200Z,21
2019-05-21T18:03:18.734Z,20
2019-05-21T18:08:34.839Z,20
2019-05-21T18:13:50.811Z,20
2019-05-21T18:19:08.830Z,19
2019-05-21T18:24:24.917Z,19
2019-05-21T18:29:40.686Z,19
2019-05-21T18:34:55.035Z,19
2019-05-21T18:40:13.661Z,19
2019-05-21T18:50:45.247Z,18
2019-05-21T18:56:02.533Z,18
2019-05-21T19:01:18.336Z,18
2019-05-21T19:06:38.235Z,18
2019-05-21T19:11:58.505Z,17
2019-05-21T19:17:15.715Z,18
2019-05-21T19:22:32.590Z,18
2019-05-21T19:27:49.453Z,18
2019-05-21T19:33:09.149Z,18
2019-05-21T19:38:25.951Z,18
2019-05-21T19:43:41.993Z,18
2019-05-21T19:48:59.339Z,17
2019-05-21T19:54:18.355Z,17
2019-05-21T19:59:33.180Z,17
2019-05-21T20:04:46.599Z,17
2019-05-21T20:10:05.684Z,17
2019-05-21T20:15:24.527Z,16
2019-05-21T20:20:41.174Z,16
2019-05-21T20:25:59.652Z,16
2019-05-21T20:31:16.121Z,16
2019-05-21T20:36:33.460Z,16
2019-05-21T20:41:50.948Z,16
2019-05-21T20:47:07.339Z,15
2019-05-21T20:52:21.205Z,15
2019-05-21T20:57:38.194Z,15
2019-05-21T21:02:53.381Z,15
2019-05-21T21:08:08.739Z,15
2019-05-21T21:13:26.456Z,15
2019-05-21T21:18:44.043Z,14
2019-05-21T21:24:01.408Z,14
2019-05-21T21:29:18.713Z,14
2019-05-21T21:34:36.587Z,14
2019-05-21T21:39:53.716Z,14
2019-05-21T21:45:11.336Z,14
2019-05-21T21:50:27.080Z,14
2019-05-21T21:55:43.603Z,14
2019-05-21T22:00:59.968Z,14
2019-05-21T22:06:14.582Z,14
2019-05-21T22:11:33.119Z,14
2019-05-21T22:16:52.160Z,14
2019-05-21T22:22:07.041Z,14
2019-05-21T22:27:26.794Z,14
2019-05-21T22:32:45.099Z,14
2019-05-21T22:38:03.408Z,14
2019-05-21T22:43:21.196Z,14
2019-05-21T22:48:40.495Z,13
2019-05-21T22:59:12.347Z,13
2019-05-21T23:04:28.106Z,12
2019-05-21T23:09:43.450Z,12
2019-05-21T23:14:58.952Z,12
2019-05-21T23:20:15.405Z,12
2019-05-21T23:25:31.965Z,12
2019-05-21T23:30:47.380Z,13
2019-05-21T23:36:02.407Z,13
2019-05-21T23:41:17.385Z,13
2019-05-21T23:46:32.331Z,13
2019-05-21T23:51:47.804Z,12
2019-05-21T23:57:02.969Z,12
